sensor_id;sensor_type;location;lat;lon;timestamp;P1;durP1;ratioP1;P2;durP2;ratioP2
40781;SDS011;26493;51.938;7.626;2022-09-13T00:00:11;18.98;;;12.43;;
40781;SDS011;26493;51.938;7.626;2022-09-13T00:02:38;21.35;;;13.32;;
40781;SDS011;26493;51.938;7.626;2022-09-13T00:05:05;18.33;;;11.95;;
40781;SDS011;26493;51.938;7.626;2022-09-13T00:07:31;19.38;;;12.57;;
40781;SDS011;26493;51.938;7.626;2022-09-13T00:09:57;19.58;;;12.48;;
40781;SDS011;26493;51.938;7.626;2022-09-13T00:12:22;20.58;;;12.70;;
40781;SDS011;26493;51.938;7.626;2022-09-13T00:14:49;20.42;;;12.18;;
40781;SDS011;26493;51.938;7.626;2022-09-13T00:17:15;21.20;;;12.27;;
40781;SDS011;26493;51.938;7.626;2022-09-13T00:19:41;20.48;;;12.70;;
40781;SDS011;26493;51.938;7.626;2022-09-13T00:22:07;19.95;;;12.52;;
40781;SDS011;26493;51.938;7.626;2022-09-13T00:24:33;20.35;;;12.65;;
40781;SDS011;26493;51.938;7.626;2022-09-13T00:27:00;20.40;;;13.80;;
40781;SDS011;26493;51.938;7.626;2022-09-13T00:29:26;19.70;;;12.82;;
40781;SDS011;26493;51.938;7.626;2022-09-13T00:31:52;19.70;;;13.57;;
40781;SDS011;26493;51.938;7.626;2022-09-13T00:34:18;20.60;;;13.32;;
40781;SDS011;26493;51.938;7.626;2022-09-13T00:36:44;19.42;;;13.20;;
40781;SDS011;26493;51.938;7.626;2022-09-13T00:39:10;21.83;;;13.32;;
40781;SDS011;26493;51.938;7.626;2022-09-13T00:41:36;20.50;;;13.60;;
40781;SDS011;26493;51.938;7.626;2022-09-13T00:44:03;21.77;;;13.40;;
40781;SDS011;26493;51.938;7.626;2022-09-13T00:46:40;19.38;;;13.10;;
40781;SDS011;26493;51.938;7.626;2022-09-13T00:51:36;20.90;;;12.60;;
40781;SDS011;26493;51.938;7.626;2022-09-13T00:54:03;22.30;;;12.48;;
40781;SDS011;26493;51.938;7.626;2022-09-13T00:56:31;18.75;;;12.40;;
40781;SDS011;26493;51.938;7.626;2022-09-13T00:59:01;21.92;;;13.05;;
40781;SDS011;26493;51.938;7.626;2022-09-13T01:01:36;20.60;;;12.80;;
40781;SDS011;26493;51.938;7.626;2022-09-13T01:04:03;19.80;;;12.73;;
40781;SDS011;26493;51.938;7.626;2022-09-13T01:06:30;17.92;;;11.70;;
40781;SDS011;26493;51.938;7.626;2022-09-13T01:08:57;18.88;;;12.30;;
40781;SDS011;26493;51.938;7.626;2022-09-13T01:11:39;20.58;;;13.55;;
40781;SDS011;26493;51.938;7.626;2022-09-13T01:14:07;21.27;;;13.43;;
40781;SDS011;26493;51.938;7.626;2022-09-13T01:16:33;19.90;;;12.25;;
40781;SDS011;26493;51.938;7.626;2022-09-13T01:18:59;18.98;;;12.02;;
40781;SDS011;26493;51.938;7.626;2022-09-13T01:26:44;19.38;;;12.82;;
40781;SDS011;26493;51.938;7.626;2022-09-13T01:32:21;20.58;;;12.23;;
40781;SDS011;26493;51.938;7.626;2022-09-13T01:37:29;20.60;;;12.63;;
40781;SDS011;26493;51.938;7.626;2022-09-13T01:45:10;20.25;;;13.38;;
40781;SDS011;26493;51.938;7.626;2022-09-13T02:00:23;19.88;;;13.23;;
40781;SDS011;26493;51.938;7.626;2022-09-13T02:02:57;21.65;;;13.75;;
40781;SDS011;26493;51.938;7.626;2022-09-13T02:08:03;20.63;;;12.60;;
40781;SDS011;26493;51.938;7.626;2022-09-13T02:10:32;20.75;;;13.48;;
40781;SDS011;26493;51.938;7.626;2022-09-13T02:13:00;20.50;;;12.85;;
40781;SDS011;26493;51.938;7.626;2022-09-13T02:15:37;21.98;;;13.70;;
40781;SDS011;26493;51.938;7.626;2022-09-13T02:18:16;19.27;;;12.00;;
40781;SDS011;26493;51.938;7.626;2022-09-13T02:20:43;21.42;;;12.27;;
40781;SDS011;26493;51.938;7.626;2022-09-13T02:23:15;19.88;;;12.73;;
40781;SDS011;26493;51.938;7.626;2022-09-13T02:25:42;20.65;;;13.23;;
40781;SDS011;26493;51.938;7.626;2022-09-13T02:28:10;18.95;;;13.30;;
40781;SDS011;26493;51.938;7.626;2022-09-13T02:30:38;20.20;;;13.50;;
40781;SDS011;26493;51.938;7.626;2022-09-13T02:35:32;19.45;;;13.15;;
40781;SDS011;26493;51.938;7.626;2022-09-13T02:38:08;20.52;;;12.95;;
40781;SDS011;26493;51.938;7.626;2022-09-13T02:40:41;20.40;;;13.00;;
40781;SDS011;26493;51.938;7.626;2022-09-13T02:43:12;20.27;;;12.65;;
40781;SDS011;26493;51.938;7.626;2022-09-13T02:46:27;20.70;;;13.98;;
40781;SDS011;26493;51.938;7.626;2022-09-13T02:48:32;19.63;;;12.77;;
40781;SDS011;26493;51.938;7.626;2022-09-13T02:51:04;21.63;;;14.70;;
40781;SDS011;26493;51.938;7.626;2022-09-13T02:53:41;20.10;;;13.48;;
40781;SDS011;26493;51.938;7.626;2022-09-13T02:56:23;20.40;;;12.88;;
40781;SDS011;26493;51.938;7.626;2022-09-13T03:01:19;20.02;;;13.13;;
40781;SDS011;26493;51.938;7.626;2022-09-13T03:03:45;21.08;;;14.00;;
40781;SDS011;26493;51.938;7.626;2022-09-13T03:06:11;21.42;;;14.15;;
40781;SDS011;26493;51.938;7.626;2022-09-13T03:08:37;21.30;;;13.27;;
40781;SDS011;26493;51.938;7.626;2022-09-13T03:18:51;20.10;;;13.50;;
40781;SDS011;26493;51.938;7.626;2022-09-13T03:36:23;19.42;;;12.75;;
40781;SDS011;26493;51.938;7.626;2022-09-13T03:39:01;19.85;;;12.80;;
40781;SDS011;26493;51.938;7.626;2022-09-13T03:41:35;21.95;;;13.48;;
40781;SDS011;26493;51.938;7.626;2022-09-13T03:46:35;22.17;;;13.55;;
40781;SDS011;26493;51.938;7.626;2022-09-13T03:49:23;20.58;;;13.13;;
40781;SDS011;26493;51.938;7.626;2022-09-13T03:51:48;20.27;;;12.85;;
40781;SDS011;26493;51.938;7.626;2022-09-13T03:54:17;20.95;;;13.13;;
40781;SDS011;26493;51.938;7.626;2022-09-13T03:56:51;22.10;;;13.60;;
40781;SDS011;26493;51.938;7.626;2022-09-13T03:59:29;20.40;;;13.43;;
40781;SDS011;26493;51.938;7.626;2022-09-13T04:01:55;20.38;;;14.13;;
40781;SDS011;26493;51.938;7.626;2022-09-13T04:04:21;21.05;;;13.80;;
40781;SDS011;26493;51.938;7.626;2022-09-13T04:06:47;19.25;;;13.43;;
40781;SDS011;26493;51.938;7.626;2022-09-13T04:09:13;20.60;;;13.35;;
40781;SDS011;26493;51.938;7.626;2022-09-13T04:11:39;21.88;;;13.10;;
40781;SDS011;26493;51.938;7.626;2022-09-13T04:14:05;20.40;;;14.02;;
40781;SDS011;26493;51.938;7.626;2022-09-13T04:16:31;19.77;;;13.20;;
40781;SDS011;26493;51.938;7.626;2022-09-13T04:18:57;20.27;;;13.93;;
40781;SDS011;26493;51.938;7.626;2022-09-13T04:21:23;20.88;;;13.07;;
40781;SDS011;26493;51.938;7.626;2022-09-13T04:23:49;20.02;;;13.43;;
40781;SDS011;26493;51.938;7.626;2022-09-13T04:26:15;19.48;;;12.40;;
40781;SDS011;26493;51.938;7.626;2022-09-13T04:28:41;20.27;;;12.90;;
40781;SDS011;26493;51.938;7.626;2022-09-13T04:31:07;19.73;;;13.32;;
40781;SDS011;26493;51.938;7.626;2022-09-13T04:33:33;20.63;;;13.00;;
40781;SDS011;26493;51.938;7.626;2022-09-13T04:36:00;20.95;;;13.20;;
40781;SDS011;26493;51.938;7.626;2022-09-13T04:38:26;18.77;;;12.98;;
40781;SDS011;26493;51.938;7.626;2022-09-13T04:40:55;20.23;;;13.73;;
40781;SDS011;26493;51.938;7.626;2022-09-13T04:43:22;20.65;;;13.68;;
40781;SDS011;26493;51.938;7.626;2022-09-13T04:45:48;24.05;;;13.20;;
40781;SDS011;26493;51.938;7.626;2022-09-13T04:48:14;21.23;;;13.65;;
40781;SDS011;26493;51.938;7.626;2022-09-13T04:50:40;21.27;;;13.77;;
40781;SDS011;26493;51.938;7.626;2022-09-13T04:53:07;20.23;;;13.18;;
40781;SDS011;26493;51.938;7.626;2022-09-13T04:55:33;22.48;;;14.48;;
40781;SDS011;26493;51.938;7.626;2022-09-13T04:58:00;19.88;;;13.68;;
40781;SDS011;26493;51.938;7.626;2022-09-13T05:00:26;24.05;;;15.18;;
40781;SDS011;26493;51.938;7.626;2022-09-13T05:02:56;22.05;;;14.93;;
40781;SDS011;26493;51.938;7.626;2022-09-13T05:05:22;23.05;;;14.77;;
40781;SDS011;26493;51.938;7.626;2022-09-13T05:07:49;23.10;;;15.55;;
40781;SDS011;26493;51.938;7.626;2022-09-13T05:10:15;19.63;;;14.35;;
40781;SDS011;26493;51.938;7.626;2022-09-13T05:12:42;24.33;;;16.00;;
40781;SDS011;26493;51.938;7.626;2022-09-13T05:15:08;23.13;;;15.80;;
40781;SDS011;26493;51.938;7.626;2022-09-13T05:17:35;21.48;;;14.18;;
40781;SDS011;26493;51.938;7.626;2022-09-13T05:20:01;22.25;;;14.65;;
40781;SDS011;26493;51.938;7.626;2022-09-13T05:22:28;24.10;;;14.88;;
40781;SDS011;26493;51.938;7.626;2022-09-13T05:24:54;21.00;;;15.35;;
40781;SDS011;26493;51.938;7.626;2022-09-13T05:27:20;21.15;;;15.10;;
40781;SDS011;26493;51.938;7.626;2022-09-13T05:29:46;23.08;;;15.60;;
40781;SDS011;26493;51.938;7.626;2022-09-13T05:32:12;20.58;;;14.35;;
40781;SDS011;26493;51.938;7.626;2022-09-13T05:34:38;23.73;;;14.50;;
40781;SDS011;26493;51.938;7.626;2022-09-13T05:37:04;24.52;;;15.07;;
40781;SDS011;26493;51.938;7.626;2022-09-13T05:39:30;20.15;;;14.55;;
40781;SDS011;26493;51.938;7.626;2022-09-13T05:41:56;23.48;;;14.63;;
40781;SDS011;26493;51.938;7.626;2022-09-13T05:44:23;20.70;;;14.52;;
40781;SDS011;26493;51.938;7.626;2022-09-13T05:46:49;27.88;;;15.75;;
40781;SDS011;26493;51.938;7.626;2022-09-13T05:49:15;20.25;;;14.38;;
40781;SDS011;26493;51.938;7.626;2022-09-13T05:51:41;23.05;;;14.73;;
40781;SDS011;26493;51.938;7.626;2022-09-13T05:54:09;20.05;;;13.50;;
40781;SDS011;26493;51.938;7.626;2022-09-13T05:59:01;22.80;;;14.77;;
40781;SDS011;26493;51.938;7.626;2022-09-13T06:01:28;21.13;;;14.80;;
40781;SDS011;26493;51.938;7.626;2022-09-13T06:03:54;22.13;;;13.93;;
40781;SDS011;26493;51.938;7.626;2022-09-13T06:06:21;22.70;;;15.25;;
40781;SDS011;26493;51.938;7.626;2022-09-13T06:08:50;20.95;;;14.35;;
40781;SDS011;26493;51.938;7.626;2022-09-13T06:13:42;20.55;;;14.48;;
40781;SDS011;26493;51.938;7.626;2022-09-13T06:16:10;20.13;;;14.35;;
40781;SDS011;26493;51.938;7.626;2022-09-13T06:18:36;20.52;;;14.85;;
40781;SDS011;26493;51.938;7.626;2022-09-13T06:23:28;20.73;;;13.93;;
40781;SDS011;26493;51.938;7.626;2022-09-13T06:25:58;22.02;;;14.45;;
40781;SDS011;26493;51.938;7.626;2022-09-13T06:28:24;20.95;;;14.38;;
40781;SDS011;26493;51.938;7.626;2022-09-13T06:30:50;21.73;;;13.93;;
40781;SDS011;26493;51.938;7.626;2022-09-13T06:33:16;22.02;;;14.20;;
40781;SDS011;26493;51.938;7.626;2022-09-13T06:35:42;23.35;;;14.82;;
40781;SDS011;26493;51.938;7.626;2022-09-13T06:38:08;21.90;;;14.90;;
40781;SDS011;26493;51.938;7.626;2022-09-13T06:40:34;22.67;;;14.45;;
40781;SDS011;26493;51.938;7.626;2022-09-13T06:43:00;21.55;;;14.10;;
40781;SDS011;26493;51.938;7.626;2022-09-13T06:45:26;22.13;;;14.13;;
40781;SDS011;26493;51.938;7.626;2022-09-13T06:47:52;22.20;;;13.23;;
40781;SDS011;26493;51.938;7.626;2022-09-13T06:50:20;22.02;;;14.10;;
40781;SDS011;26493;51.938;7.626;2022-09-13T06:52:46;21.08;;;13.38;;
40781;SDS011;26493;51.938;7.626;2022-09-13T06:55:12;21.27;;;14.65;;
40781;SDS011;26493;51.938;7.626;2022-09-13T06:57:38;24.80;;;14.25;;
40781;SDS011;26493;51.938;7.626;2022-09-13T07:00:04;21.58;;;13.85;;
40781;SDS011;26493;51.938;7.626;2022-09-13T07:02:30;22.85;;;14.65;;
40781;SDS011;26493;51.938;7.626;2022-09-13T07:04:56;21.98;;;13.68;;
40781;SDS011;26493;51.938;7.626;2022-09-13T07:07:22;21.98;;;14.60;;
40781;SDS011;26493;51.938;7.626;2022-09-13T07:09:48;21.10;;;14.20;;
40781;SDS011;26493;51.938;7.626;2022-09-13T07:12:14;21.33;;;15.23;;
40781;SDS011;26493;51.938;7.626;2022-09-13T07:14:40;19.75;;;13.57;;
40781;SDS011;26493;51.938;7.626;2022-09-13T07:17:06;19.48;;;13.82;;
40781;SDS011;26493;51.938;7.626;2022-09-13T07:19:32;19.90;;;14.98;;
40781;SDS011;26493;51.938;7.626;2022-09-13T07:21:58;21.30;;;15.05;;
40781;SDS011;26493;51.938;7.626;2022-09-13T07:24:24;23.08;;;15.88;;
40781;SDS011;26493;51.938;7.626;2022-09-13T07:26:51;22.83;;;15.25;;
40781;SDS011;26493;51.938;7.626;2022-09-13T07:29:18;23.42;;;15.70;;
40781;SDS011;26493;51.938;7.626;2022-09-13T07:31:47;21.50;;;14.82;;
40781;SDS011;26493;51.938;7.626;2022-09-13T07:36:39;24.63;;;15.13;;
40781;SDS011;26493;51.938;7.626;2022-09-13T07:39:05;24.23;;;15.55;;
40781;SDS011;26493;51.938;7.626;2022-09-13T07:41:32;23.45;;;14.75;;
40781;SDS011;26493;51.938;7.626;2022-09-13T07:43:58;22.13;;;15.23;;
40781;SDS011;26493;51.938;7.626;2022-09-13T07:46:26;23.00;;;15.20;;
40781;SDS011;26493;51.938;7.626;2022-09-13T07:48:53;23.15;;;14.80;;
40781;SDS011;26493;51.938;7.626;2022-09-13T07:51:20;22.48;;;15.35;;
40781;SDS011;26493;51.938;7.626;2022-09-13T07:53:47;24.23;;;16.92;;
40781;SDS011;26493;51.938;7.626;2022-09-13T07:58:40;27.98;;;16.48;;
40781;SDS011;26493;51.938;7.626;2022-09-13T08:01:10;22.80;;;16.58;;
40781;SDS011;26493;51.938;7.626;2022-09-13T08:03:37;24.70;;;17.00;;
40781;SDS011;26493;51.938;7.626;2022-09-13T08:06:04;23.85;;;16.80;;
40781;SDS011;26493;51.938;7.626;2022-09-13T08:08:30;24.25;;;18.13;;
40781;SDS011;26493;51.938;7.626;2022-09-13T08:10:57;28.75;;;18.83;;
40781;SDS011;26493;51.938;7.626;2022-09-13T08:13:23;24.23;;;16.90;;
40781;SDS011;26493;51.938;7.626;2022-09-13T08:15:49;23.30;;;17.42;;
40781;SDS011;26493;51.938;7.626;2022-09-13T08:18:15;24.45;;;17.60;;
40781;SDS011;26493;51.938;7.626;2022-09-13T08:20:41;26.45;;;18.15;;
40781;SDS011;26493;51.938;7.626;2022-09-13T08:23:08;24.60;;;17.88;;
40781;SDS011;26493;51.938;7.626;2022-09-13T08:25:35;23.98;;;17.52;;
40781;SDS011;26493;51.938;7.626;2022-09-13T08:28:05;25.00;;;16.80;;
40781;SDS011;26493;51.938;7.626;2022-09-13T08:30:35;25.80;;;17.42;;
40781;SDS011;26493;51.938;7.626;2022-09-13T08:33:05;25.40;;;18.33;;
40781;SDS011;26493;51.938;7.626;2022-09-13T08:35:31;26.95;;;18.02;;
40781;SDS011;26493;51.938;7.626;2022-09-13T08:37:58;22.63;;;17.35;;
40781;SDS011;26493;51.938;7.626;2022-09-13T08:40:24;25.08;;;18.73;;
40781;SDS011;26493;51.938;7.626;2022-09-13T08:45:18;23.35;;;17.55;;
40781;SDS011;26493;51.938;7.626;2022-09-13T08:47:46;27.08;;;17.67;;
40781;SDS011;26493;51.938;7.626;2022-09-13T08:50:16;26.80;;;18.90;;
40781;SDS011;26493;51.938;7.626;2022-09-13T08:52:45;23.92;;;18.80;;
40781;SDS011;26493;51.938;7.626;2022-09-13T08:56:01;25.45;;;19.20;;
40781;SDS011;26493;51.938;7.626;2022-09-13T09:00:37;24.33;;;18.95;;
40781;SDS011;26493;51.938;7.626;2022-09-13T09:05:32;26.55;;;19.02;;
40781;SDS011;26493;51.938;7.626;2022-09-13T09:08:13;22.80;;;17.98;;
40781;SDS011;26493;51.938;7.626;2022-09-13T09:10:41;26.98;;;20.88;;
40781;SDS011;26493;51.938;7.626;2022-09-13T09:13:11;25.98;;;20.58;;
40781;SDS011;26493;51.938;7.626;2022-09-13T09:15:39;30.73;;;21.42;;
40781;SDS011;26493;51.938;7.626;2022-09-13T09:18:28;27.27;;;21.50;;
40781;SDS011;26493;51.938;7.626;2022-09-13T09:20:52;25.10;;;19.45;;
40781;SDS011;26493;51.938;7.626;2022-09-13T09:25:56;25.58;;;19.55;;
40781;SDS011;26493;51.938;7.626;2022-09-13T09:28:25;25.35;;;18.55;;
40781;SDS011;26493;51.938;7.626;2022-09-13T09:30:59;27.67;;;19.52;;
40781;SDS011;26493;51.938;7.626;2022-09-13T09:39:02;26.65;;;19.58;;
40781;SDS011;26493;51.938;7.626;2022-09-13T09:41:29;24.23;;;17.30;;
40781;SDS011;26493;51.938;7.626;2022-09-13T09:46:42;23.55;;;16.83;;
40781;SDS011;26493;51.938;7.626;2022-09-13T09:49:18;22.45;;;16.58;;
40781;SDS011;26493;51.938;7.626;2022-09-13T09:52:05;21.42;;;14.82;;
40781;SDS011;26493;51.938;7.626;2022-09-13T09:54:32;20.58;;;14.50;;
40781;SDS011;26493;51.938;7.626;2022-09-13T09:56:59;19.98;;;13.65;;
40781;SDS011;26493;51.938;7.626;2022-09-13T09:59:27;19.75;;;13.27;;
40781;SDS011;26493;51.938;7.626;2022-09-13T10:01:53;21.63;;;15.50;;
40781;SDS011;26493;51.938;7.626;2022-09-13T10:04:22;24.23;;;14.35;;
40781;SDS011;26493;51.938;7.626;2022-09-13T10:06:48;23.55;;;16.25;;
40781;SDS011;26493;51.938;7.626;2022-09-13T10:09:16;22.73;;;16.05;;
40781;SDS011;26493;51.938;7.626;2022-09-13T10:14:29;21.73;;;14.65;;
40781;SDS011;26493;51.938;7.626;2022-09-13T10:19:41;21.35;;;15.48;;
40781;SDS011;26493;51.938;7.626;2022-09-13T10:22:16;20.60;;;15.15;;
40781;SDS011;26493;51.938;7.626;2022-09-13T10:24:42;24.60;;;16.33;;
40781;SDS011;26493;51.938;7.626;2022-09-13T10:29:51;21.23;;;15.20;;
40781;SDS011;26493;51.938;7.626;2022-09-13T10:32:19;22.02;;;16.80;;
40781;SDS011;26493;51.938;7.626;2022-09-13T10:34:45;22.65;;;16.17;;
40781;SDS011;26493;51.938;7.626;2022-09-13T10:37:20;26.47;;;17.73;;
40781;SDS011;26493;51.938;7.626;2022-09-13T10:42:16;24.92;;;17.08;;
40781;SDS011;26493;51.938;7.626;2022-09-13T10:44:45;22.92;;;16.73;;
40781;SDS011;26493;51.938;7.626;2022-09-13T10:49:52;24.50;;;18.23;;
40781;SDS011;26493;51.938;7.626;2022-09-13T10:52:34;24.23;;;17.08;;
40781;SDS011;26493;51.938;7.626;2022-09-13T11:00:21;22.40;;;16.40;;
40781;SDS011;26493;51.938;7.626;2022-09-13T11:18:33;22.48;;;17.05;;
40781;SDS011;26493;51.938;7.626;2022-09-13T11:44:35;24.25;;;18.73;;
40781;SDS011;26493;51.938;7.626;2022-09-13T11:49:36;22.67;;;17.25;;
40781;SDS011;26493;51.938;7.626;2022-09-13T11:52:10;22.85;;;16.65;;
40781;SDS011;26493;51.938;7.626;2022-09-13T11:54:44;23.15;;;15.40;;
40781;SDS011;26493;51.938;7.626;2022-09-13T11:57:15;21.90;;;15.90;;
40781;SDS011;26493;51.938;7.626;2022-09-13T11:59:44;26.73;;;16.75;;
40781;SDS011;26493;51.938;7.626;2022-09-13T12:04:49;22.63;;;16.25;;
40781;SDS011;26493;51.938;7.626;2022-09-13T12:07:22;21.85;;;15.88;;
40781;SDS011;26493;51.938;7.626;2022-09-13T12:09:54;22.23;;;15.95;;
40781;SDS011;26493;51.938;7.626;2022-09-13T12:12:24;21.23;;;15.60;;
40781;SDS011;26493;51.938;7.626;2022-09-13T12:14:59;20.80;;;15.80;;
40781;SDS011;26493;51.938;7.626;2022-09-13T12:19:56;23.23;;;15.35;;
40781;SDS011;26493;51.938;7.626;2022-09-13T12:22:25;24.63;;;19.27;;
40781;SDS011;26493;51.938;7.626;2022-09-13T12:32:39;20.48;;;15.55;;
40781;SDS011;26493;51.938;7.626;2022-09-13T12:54:26;20.67;;;15.15;;
40781;SDS011;26493;51.938;7.626;2022-09-13T12:56:26;20.60;;;14.68;;
40781;SDS011;26493;51.938;7.626;2022-09-13T13:01:33;22.40;;;15.57;;
40781;SDS011;26493;51.938;7.626;2022-09-13T13:04:19;20.10;;;16.35;;
40781;SDS011;26493;51.938;7.626;2022-09-13T13:06:53;20.25;;;15.73;;
40781;SDS011;26493;51.938;7.626;2022-09-13T13:11:59;25.65;;;15.60;;
40781;SDS011;26493;51.938;7.626;2022-09-13T13:16:52;22.73;;;16.33;;
40781;SDS011;26493;51.938;7.626;2022-09-13T13:19:31;19.25;;;15.27;;
40781;SDS011;26493;51.938;7.626;2022-09-13T13:24:46;18.38;;;13.27;;
40781;SDS011;26493;51.938;7.626;2022-09-13T13:33:03;19.98;;;14.85;;
40781;SDS011;26493;51.938;7.626;2022-09-13T13:35:28;18.75;;;13.80;;
40781;SDS011;26493;51.938;7.626;2022-09-13T13:38:12;21.08;;;12.90;;
40781;SDS011;26493;51.938;7.626;2022-09-13T13:40:38;18.30;;;12.77;;
40781;SDS011;26493;51.938;7.626;2022-09-13T13:43:14;18.85;;;14.02;;
40781;SDS011;26493;51.938;7.626;2022-09-13T13:45:54;18.67;;;12.45;;
40781;SDS011;26493;51.938;7.626;2022-09-13T13:48:42;20.98;;;14.52;;
40781;SDS011;26493;51.938;7.626;2022-09-13T13:53:40;20.33;;;13.23;;
40781;SDS011;26493;51.938;7.626;2022-09-13T13:56:52;17.63;;;12.50;;
40781;SDS011;26493;51.938;7.626;2022-09-13T13:58:55;18.80;;;13.77;;
40781;SDS011;26493;51.938;7.626;2022-09-13T14:01:26;16.58;;;13.30;;
40781;SDS011;26493;51.938;7.626;2022-09-13T14:09:09;18.08;;;12.82;;
40781;SDS011;26493;51.938;7.626;2022-09-13T14:11:42;17.98;;;12.50;;
40781;SDS011;26493;51.938;7.626;2022-09-13T14:22:27;17.17;;;12.68;;
40781;SDS011;26493;51.938;7.626;2022-09-13T14:24:46;17.05;;;12.63;;
40781;SDS011;26493;51.938;7.626;2022-09-13T14:27:14;15.95;;;12.23;;
40781;SDS011;26493;51.938;7.626;2022-09-13T14:29:43;16.33;;;12.23;;
40781;SDS011;26493;51.938;7.626;2022-09-13T14:32:10;17.38;;;12.00;;
40781;SDS011;26493;51.938;7.626;2022-09-13T14:34:38;16.58;;;11.88;;
40781;SDS011;26493;51.938;7.626;2022-09-13T14:37:05;18.17;;;11.80;;
40781;SDS011;26493;51.938;7.626;2022-09-13T14:39:31;15.82;;;11.23;;
40781;SDS011;26493;51.938;7.626;2022-09-13T14:41:59;16.10;;;12.00;;
40781;SDS011;26493;51.938;7.626;2022-09-13T14:44:25;16.33;;;11.50;;
40781;SDS011;26493;51.938;7.626;2022-09-13T14:49:45;16.70;;;12.25;;
40781;SDS011;26493;51.938;7.626;2022-09-13T14:52:20;19.77;;;11.50;;
40781;SDS011;26493;51.938;7.626;2022-09-13T14:54:49;18.15;;;10.65;;
40781;SDS011;26493;51.938;7.626;2022-09-13T14:57:24;16.55;;;11.30;;
40781;SDS011;26493;51.938;7.626;2022-09-13T15:00:13;16.79;;;11.50;;
40781;SDS011;26493;51.938;7.626;2022-09-13T15:02:42;15.93;;;11.20;;
40781;SDS011;26493;51.938;7.626;2022-09-13T15:05:12;15.82;;;11.05;;
40781;SDS011;26493;51.938;7.626;2022-09-13T15:07:39;17.10;;;10.80;;
40781;SDS011;26493;51.938;7.626;2022-09-13T15:12:51;17.23;;;10.65;;
40781;SDS011;26493;51.938;7.626;2022-09-13T15:17:55;15.93;;;10.30;;
40781;SDS011;26493;51.938;7.626;2022-09-13T15:20:22;16.02;;;10.27;;
40781;SDS011;26493;51.938;7.626;2022-09-13T15:22:48;18.27;;;10.48;;
40781;SDS011;26493;51.938;7.626;2022-09-13T15:25:25;17.05;;;10.40;;
40781;SDS011;26493;51.938;7.626;2022-09-13T15:27:52;15.55;;;9.73;;
40781;SDS011;26493;51.938;7.626;2022-09-13T15:30:28;14.90;;;9.98;;
40781;SDS011;26493;51.938;7.626;2022-09-13T15:33:05;15.55;;;10.18;;
40781;SDS011;26493;51.938;7.626;2022-09-13T15:35:49;15.00;;;10.23;;
40781;SDS011;26493;51.938;7.626;2022-09-13T15:38:20;15.77;;;10.27;;
40781;SDS011;26493;51.938;7.626;2022-09-13T15:40:57;14.93;;;9.85;;
40781;SDS011;26493;51.938;7.626;2022-09-13T15:43:23;15.70;;;10.25;;
40781;SDS011;26493;51.938;7.626;2022-09-13T15:45:49;16.52;;;10.38;;
40781;SDS011;26493;51.938;7.626;2022-09-13T15:48:24;16.20;;;10.30;;
40781;SDS011;26493;51.938;7.626;2022-09-13T15:51:02;14.88;;;9.63;;
40781;SDS011;26493;51.938;7.626;2022-09-13T15:53:29;16.33;;;9.98;;
40781;SDS011;26493;51.938;7.626;2022-09-13T15:55:55;14.43;;;9.32;;
40781;SDS011;26493;51.938;7.626;2022-09-13T15:58:21;17.20;;;10.18;;
40781;SDS011;26493;51.938;7.626;2022-09-13T16:00:47;15.68;;;9.75;;
40781;SDS011;26493;51.938;7.626;2022-09-13T16:03:13;15.80;;;9.50;;
40781;SDS011;26493;51.938;7.626;2022-09-13T16:05:39;15.50;;;9.95;;
40781;SDS011;26493;51.938;7.626;2022-09-13T16:08:08;16.52;;;9.98;;
40781;SDS011;26493;51.938;7.626;2022-09-13T16:10:35;16.98;;;9.20;;
40781;SDS011;26493;51.938;7.626;2022-09-13T16:13:01;14.95;;;9.60;;
40781;SDS011;26493;51.938;7.626;2022-09-13T16:15:27;15.15;;;9.90;;
40781;SDS011;26493;51.938;7.626;2022-09-13T16:17:53;15.65;;;9.88;;
40781;SDS011;26493;51.938;7.626;2022-09-13T16:20:19;15.95;;;9.57;;
40781;SDS011;26493;51.938;7.626;2022-09-13T16:22:45;14.30;;;9.50;;
40781;SDS011;26493;51.938;7.626;2022-09-13T16:25:12;15.45;;;9.20;;
40781;SDS011;26493;51.938;7.626;2022-09-13T16:27:38;17.80;;;9.82;;
40781;SDS011;26493;51.938;7.626;2022-09-13T16:30:05;15.02;;;9.05;;
40781;SDS011;26493;51.938;7.626;2022-09-13T16:32:31;17.15;;;9.52;;
40781;SDS011;26493;51.938;7.626;2022-09-13T16:34:57;16.35;;;10.27;;
40781;SDS011;26493;51.938;7.626;2022-09-13T16:37:23;16.25;;;10.10;;
40781;SDS011;26493;51.938;7.626;2022-09-13T16:39:49;14.75;;;10.05;;
40781;SDS011;26493;51.938;7.626;2022-09-13T16:42:16;15.18;;;10.15;;
40781;SDS011;26493;51.938;7.626;2022-09-13T16:44:42;16.13;;;9.57;;
40781;SDS011;26493;51.938;7.626;2022-09-13T16:47:08;16.13;;;9.73;;
40781;SDS011;26493;51.938;7.626;2022-09-13T16:49:35;14.63;;;9.25;;
40781;SDS011;26493;51.938;7.626;2022-09-13T16:52:01;15.73;;;9.68;;
40781;SDS011;26493;51.938;7.626;2022-09-13T16:54:28;16.25;;;11.23;;
40781;SDS011;26493;51.938;7.626;2022-09-13T16:56:59;15.20;;;9.73;;
40781;SDS011;26493;51.938;7.626;2022-09-13T16:59:25;14.93;;;9.07;;
40781;SDS011;26493;51.938;7.626;2022-09-13T17:01:51;17.38;;;9.18;;
40781;SDS011;26493;51.938;7.626;2022-09-13T17:04:17;15.07;;;8.82;;
40781;SDS011;26493;51.938;7.626;2022-09-13T17:06:43;14.90;;;8.80;;
40781;SDS011;26493;51.938;7.626;2022-09-13T17:09:09;14.57;;;9.02;;
40781;SDS011;26493;51.938;7.626;2022-09-13T17:11:38;15.68;;;9.93;;
40781;SDS011;26493;51.938;7.626;2022-09-13T17:14:05;14.82;;;9.32;;
40781;SDS011;26493;51.938;7.626;2022-09-13T17:16:33;14.73;;;9.50;;
40781;SDS011;26493;51.938;7.626;2022-09-13T17:19:01;16.67;;;9.20;;
40781;SDS011;26493;51.938;7.626;2022-09-13T17:21:27;14.68;;;9.27;;
40781;SDS011;26493;51.938;7.626;2022-09-13T17:23:53;15.40;;;9.82;;
40781;SDS011;26493;51.938;7.626;2022-09-13T17:26:19;15.73;;;9.30;;
40781;SDS011;26493;51.938;7.626;2022-09-13T17:28:46;15.55;;;9.23;;
40781;SDS011;26493;51.938;7.626;2022-09-13T17:31:12;14.65;;;8.80;;
40781;SDS011;26493;51.938;7.626;2022-09-13T17:33:38;16.48;;;8.98;;
40781;SDS011;26493;51.938;7.626;2022-09-13T17:36:08;14.50;;;8.85;;
40781;SDS011;26493;51.938;7.626;2022-09-13T17:38:35;16.70;;;10.90;;
40781;SDS011;26493;51.938;7.626;2022-09-13T17:41:03;15.25;;;9.25;;
40781;SDS011;26493;51.938;7.626;2022-09-13T17:43:29;17.33;;;11.32;;
40781;SDS011;26493;51.938;7.626;2022-09-13T17:45:55;18.73;;;13.02;;
40781;SDS011;26493;51.938;7.626;2022-09-13T17:48:22;17.40;;;10.35;;
40781;SDS011;26493;51.938;7.626;2022-09-13T17:50:48;16.13;;;9.35;;
40781;SDS011;26493;51.938;7.626;2022-09-13T17:53:14;15.90;;;10.35;;
40781;SDS011;26493;51.938;7.626;2022-09-13T17:55:46;19.42;;;11.90;;
40781;SDS011;26493;51.938;7.626;2022-09-13T17:58:13;15.00;;;8.80;;
40781;SDS011;26493;51.938;7.626;2022-09-13T18:00:39;15.45;;;9.77;;
40781;SDS011;26493;51.938;7.626;2022-09-13T18:03:05;15.52;;;9.30;;
40781;SDS011;26493;51.938;7.626;2022-09-13T18:05:31;15.60;;;9.18;;
40781;SDS011;26493;51.938;7.626;2022-09-13T18:07:57;16.30;;;8.80;;
40781;SDS011;26493;51.938;7.626;2022-09-13T18:10:23;19.55;;;13.07;;
40781;SDS011;26493;51.938;7.626;2022-09-13T18:12:49;14.80;;;9.10;;
40781;SDS011;26493;51.938;7.626;2022-09-13T18:15:15;16.50;;;9.40;;
40781;SDS011;26493;51.938;7.626;2022-09-13T18:17:41;15.18;;;8.45;;